Upstream stations:
Downstream station:
SHEF ID: YUKO2 North Canadian River near Yukon,
STATION TYPE:
Regulating: Stage = 11.00, Flow = 3611
STAGE RIV-FLOW WTR-TEMP BAT-LOAD
ft cfs F volt
Ccp-Rev Ccp-Rev Ccp-Rev Ccp-Rev
(US/Central)
01/31 00:00 1.51 49 53.60 12.80
01/31 01:00 1.52 50 53.60 12.77
01/31 02:00 1.52 50 53.60 12.74
01/31 03:00 1.52 50 53.60 12.73
01/31 04:00 1.52 50 53.60 12.70
01/31 05:00 1.51 49 53.60 12.67
01/31 06:00 1.51 49 53.60 12.65
01/31 07:00 1.52 50 53.60 12.63
01/31 08:00 1.52 50 53.60 12.62
01/31 09:00 1.48 46 53.60 13.43
01/31 10:00 1.42 40 53.60 13.90
01/31 11:00 1.39 37 53.60 13.76
01/31 12:00 1.38 36 53.60 13.65
01/31 13:00 1.37 35 53.60 13.62
01/31 14:00 1.37 35 53.60 13.57
01/31 15:00 1.36 34 53.60 13.49
01/31 16:00 1.35 33 53.60 13.36
01/31 17:00 1.35 33 53.60 13.24
01/31 18:00 1.36 34 53.60 13.11
01/31 19:00 1.38 36 53.60 13.03
01/31 20:00 1.40 38 53.60 12.96
01/31 21:00 1.38 36 53.60 12.93
01/31 22:00 1.37 35 53.60 12.91
01/31 23:00 1.38 36 48.69 12.89